Odessa, Washington
Current Conditions -  °F | °C
As of 10:52 PM on Sunday 21 Dec 2014 (Local Time) from KMWH Reporting Station
Clear Clear  
Wind Chill: 36°   Ceiling: Unl
Heat Index: 41°   Visibility: 10mi
Dew Point: 34°   Wind: 8mph
Humidity: 76%   Direction: 270°W
Pressure: 30.03"   Gusts: NA
Location:  47.33°N, 118.69°W
Report Text: KMWH 220652Z 27007KT 10SM CLR 05/01 A3003 RMK AO2 SLP174 T00500011
Loading
Personal Weather Stations






























Interactive Weather Map New forecast layout! Learn more

10-Day Weather Forecast

Advertisements
Track Severe Weather on mobile